KSMP

Stampede Pass Airport

Washington, USA
METAR KSMP 230456Z AUTO VRB04KT CLR 08/01 A2998 RMK AO2 SLP147 T00830011 $
Observed Flight Rules
Oct-23 @ 04:56 UTC (22 minutes ago)
Wind Clouds
Variable at 4 knots
  • Clear skies
Temperatures Readings
Current 8°C / 46°F
Dewpoint 1°C / 34°F
Humidity 62%
Altimeter 29.98" Hg
Pressure 1014.7 hPa
Elevation 1208
METAR KSMP 230456Z AUTO VRB04KT CLR 08/01 A2998 RMK AO2 SLP147 T00830011 $
Observed Flight Rules
Oct-23 @ 04:56 UTC
(22 minutes ago)
Wind
Variable at 4 knots
Clouds
  • Clear skies
Temperature Dewpoint
8°C / 46°F 1°C / 34°F
Humidity Altimeter Pressure
62% 29.98" Hg 1014.7 hPa